Time;durP1;ratioP1;P1;durP2;ratioP2;P2;SDS_P1;SDS_P2;PMS_P1;PMS_P2;Temp;Humidity;BMP_temperature;BMP_pressure;BME280_temperature;BME280_humidity;BME280_pressure;Samples;Min_cycle;Max_cycle;Signal;HPM_P1;HPM_P2
2023/01/05 00:00:23;;;;;;;26.58;5.47;;;;;;;10.73;91.75;101359.91;5019290;28;20038;-72
2023/01/05 00:02:49;;;;;;;27.48;3.70;;;;;;;10.66;92.14;101341.47;4987776;28;20033;-73
2023/01/05 00:05:14;;;;;;;29.95;4.82;;;;;;;10.76;91.83;101365.63;5001287;28;20091;-72
2023/01/05 00:07:40;;;;;;;26.83;4.35;;;;;;;10.80;91.12;101372.16;5002517;28;20029;-72
2023/01/05 00:22:29;;;;;;;28.80;3.58;;;;;;;10.80;90.68;101384.31;5023466;28;20057;-73
2023/01/05 00:23:58;;;;;;;24.48;4.00;;;;;;;10.63;91.11;101370.31;5018915;28;20041;-72
2023/01/05 00:26:23;;;;;;;24.38;4.13;;;;;;;10.72;90.56;101372.06;4988110;28;20427;-72
2023/01/05 00:28:49;;;;;;;21.10;4.43;;;;;;;10.68;90.76;101361.16;5007729;28;20029;-72
2023/01/05 00:31:15;;;;;;;40.03;4.60;;;;;;;10.62;90.76;101369.47;5003558;28;20045;-72
2023/01/05 00:33:40;;;;;;;29.40;3.42;;;;;;;10.65;90.88;101371.00;5003764;28;20038;-72
2023/01/05 00:36:10;;;;;;;21.25;3.45;;;;;;;10.65;90.80;101368.41;5002559;28;20041;-72
2023/01/05 00:38:36;;;;;;;28.15;3.67;;;;;;;10.67;90.41;101375.06;5005704;28;20164;-71
2023/01/05 00:41:01;;;;;;;23.75;3.25;;;;;;;10.66;90.51;101365.66;4970011;28;20042;-72
2023/01/05 00:43:27;;;;;;;33.40;3.95;;;;;;;10.70;90.33;101374.78;5004678;28;20112;-72
2023/01/05 00:45:52;;;;;;;21.13;2.78;;;;;;;10.59;90.64;101379.34;5002926;28;20488;-71
2023/01/05 00:48:18;;;;;;;35.17;4.53;;;;;;;10.59;91.09;101376.75;5009289;28;20060;-73
2023/01/05 00:50:45;;;;;;;26.83;4.45;;;;;;;10.62;90.90;101382.44;5005228;28;20037;-72
2023/01/05 00:53:10;;;;;;;27.83;3.22;;;;;;;10.65;90.52;101389.16;5020117;28;20030;-72
2023/01/05 00:55:36;;;;;;;30.48;3.97;;;;;;;10.57;90.69;101376.88;4989811;28;20499;-73
2023/01/05 00:58:03;;;;;;;31.30;4.53;;;;;;;10.59;90.64;101385.34;5002201;28;20515;-73
2023/01/05 01:00:29;;;;;;;25.17;3.15;;;;;;;10.52;90.61;101387.66;4961879;28;20047;-72
2023/01/05 01:02:54;;;;;;;31.92;4.03;;;;;;;10.55;90.81;101383.16;5010584;28;20400;-72
2023/01/05 01:05:21;;;;;;;23.88;4.70;;;;;;;10.51;91.29;101388.66;4982783;28;20045;-72
2023/01/05 01:07:48;;;;;;;25.73;3.22;;;;;;;10.56;91.64;101390.00;5008297;28;20240;-72
2023/01/05 01:10:14;;;;;;;32.92;4.85;;;;;;;10.52;91.21;101376.50;5006600;28;20041;-72
2023/01/05 01:12:40;;;;;;;27.90;4.30;;;;;;;10.41;91.79;101380.06;5007631;28;20432;-72
2023/01/05 01:15:06;;;;;;;33.05;3.75;;;;;;;10.45;91.37;101380.59;5004962;28;20095;-72
2023/01/05 01:17:33;;;;;;;21.80;3.00;;;;;;;10.45;91.65;101378.00;5009657;28;20033;-72
2023/01/05 01:19:59;;;;;;;30.45;4.18;;;;;;;10.47;91.88;101378.69;5001693;28;20048;-72
2023/01/05 01:22:24;;;;;;;25.85;3.63;;;;;;;10.40;91.90;101396.59;5003590;28;20399;-72
2023/01/05 01:24:51;;;;;;;33.13;2.90;;;;;;;10.45;92.32;101397.00;5017435;28;20052;-72
2023/01/05 01:27:16;;;;;;;32.55;4.78;;;;;;;10.40;92.07;101393.19;5020873;28;20121;-72
2023/01/05 01:29:42;;;;;;;26.60;3.13;;;;;;;10.37;92.60;101390.88;5017243;28;20387;-72
2023/01/05 01:32:08;;;;;;;29.60;4.70;;;;;;;10.41;92.02;101397.41;5000213;28;20037;-71
2023/01/05 01:34:33;;;;;;;35.25;4.18;;;;;;;10.42;92.04;101409.41;5003271;28;20443;-73
2023/01/05 01:36:59;;;;;;;19.60;3.58;;;;;;;10.43;92.06;101405.84;5002720;28;20033;-72
2023/01/05 01:39:30;;;;;;;34.28;4.57;;;;;;;10.33;92.24;101405.88;4999793;28;20030;-72
2023/01/05 01:42:00;;;;;;;27.80;3.92;;;;;;;10.37;92.36;101424.56;5007856;28;20021;-72
2023/01/05 01:44:51;;;;;;;23.45;3.35;;;;;;;10.28;92.91;101421.00;5002199;28;20068;-72
2023/01/05 01:47:33;;;;;;;27.77;5.32;;;;;;;10.36;92.54;101430.69;5014636;28;20161;-72
2023/01/05 01:50:07;;;;;;;24.88;3.70;;;;;;;10.29;92.83;101430.41;4992140;28;20455;-72
2023/01/05 01:52:34;;;;;;;30.65;4.10;;;;;;;10.32;92.61;101436.19;5025412;28;20029;-72
2023/01/05 01:55:02;;;;;;;31.73;3.85;;;;;;;10.36;92.73;101431.53;5008346;28;20454;-72
2023/01/05 01:57:28;;;;;;;29.65;4.13;;;;;;;10.43;92.52;101430.00;5000211;28;20136;-71
2023/01/05 01:59:56;;;;;;;35.50;4.80;;;;;;;10.41;92.38;101434.50;5002136;28;20038;-71
2023/01/05 02:02:22;;;;;;;30.83;3.67;;;;;;;10.32;92.47;101436.19;4997518;28;20045;-72
2023/01/05 02:04:49;;;;;;;26.02;5.05;;;;;;;10.27;93.09;101447.88;5003230;28;20033;-72
2023/01/05 02:07:15;;;;;;;28.65;3.83;;;;;;;10.28;92.79;101447.75;5011099;28;20480;-72
2023/01/05 02:09:41;;;;;;;28.23;3.40;;;;;;;10.26;92.98;101444.44;5005338;28;20037;-72
2023/01/05 02:12:36;;;;;;;23.48;3.35;;;;;;;10.26;92.75;101444.44;5006987;28;20036;-71
2023/01/05 02:15:45;;;;;;;28.83;4.43;;;;;;;10.24;93.04;101438.59;5022126;28;20034;-72
2023/01/05 02:18:14;;;;;;;36.00;4.80;;;;;;;10.20;92.54;101428.66;5012005;28;20029;-72
2023/01/05 02:21:01;;;;;;;34.50;4.15;;;;;;;10.30;92.00;101432.03;5009899;28;20116;-72
2023/01/05 02:23:44;;;;;;;32.60;4.55;;;;;;;10.27;92.15;101435.72;5014250;28;20060;-72
2023/01/05 02:26:31;;;;;;;22.38;3.50;;;;;;;10.19;92.66;101442.56;5027640;28;20067;-72
2023/01/05 02:29:16;;;;;;;28.95;3.92;;;;;;;10.16;92.85;101425.50;5006957;28;20600;-71
2023/01/05 02:32:13;;;;;;;33.58;4.40;;;;;;;10.19;92.84;101440.81;4989212;28;20431;-72
2023/01/05 02:34:43;;;;;;;27.40;4.03;;;;;;;10.26;92.32;101452.22;4981219;28;20040;-71
2023/01/05 02:37:18;;;;;;;34.67;4.63;;;;;;;10.26;92.89;101461.78;5032762;28;20026;-72
2023/01/05 02:39:55;;;;;;;38.65;5.05;;;;;;;10.26;92.75;101465.19;5005480;28;20120;-72
2023/01/05 02:42:28;;;;;;;34.13;4.18;;;;;;;10.13;93.50;101452.53;4991479;28;20025;-72
2023/01/05 02:44:53;;;;;;;35.80;4.78;;;;;;;10.13;93.54;101462.06;5006984;28;20046;-72
2023/01/05 02:47:26;;;;;;;31.95;4.32;;;;;;;10.17;93.63;101457.41;4993179;28;20047;-71
2023/01/05 02:50:17;;;;;;;32.00;5.80;;;;;;;10.05;93.89;101462.75;5011811;28;20482;-72
2023/01/05 02:52:58;;;;;;;29.70;3.67;;;;;;;10.08;94.20;101457.31;4991060;28;20471;-71
2023/01/05 02:55:35;;;;;;;36.17;3.83;;;;;;;10.14;94.11;101450.75;4986039;28;20539;-72
2023/01/05 02:58:14;;;;;;;30.73;4.97;;;;;;;10.04;94.53;101455.09;5003226;28;20067;-72
2023/01/05 03:00:45;;;;;;;30.17;5.10;;;;;;;10.16;94.39;101450.63;4991720;28;20034;-72
2023/01/05 03:03:20;;;;;;;29.38;4.35;;;;;;;10.22;93.96;101455.25;5007602;28;20459;-72
2023/01/05 03:05:53;;;;;;;28.05;3.85;;;;;;;9.97;95.35;101454.84;4988335;28;20099;-72
2023/01/05 03:08:23;;;;;;;;;;;;;;;10.10;95.00;101442.44;5019194;28;20498;-72
2023/01/05 03:13:55;;;;;;;35.75;5.07;;;;;;;10.17;94.90;101449.66;5001963;28;20480;-71
2023/01/05 03:16:26;;;;;;;31.02;4.78;;;;;;;10.02;95.02;101459.59;5005126;28;20063;-72
2023/01/05 03:35:43;;;;;;;28.10;3.88;;;;;;;10.12;95.99;101473.41;5008037;28;20033;-72
2023/01/05 03:38:23;;;;;;;23.50;4.30;;;;;;;10.10;95.82;101468.34;5010926;28;20040;-72
2023/01/05 03:40:56;;;;;;;28.05;4.25;;;;;;;10.03;95.67;101467.25;5005115;28;20117;-71
2023/01/05 03:43:24;;;;;;;39.83;3.80;;;;;;;10.10;96.06;101465.75;5033478;23;20072;-77
2023/01/05 03:45:52;;;;;;;37.65;3.90;;;;;;;10.14;95.44;101474.06;5023297;28;20048;-77
2023/01/05 03:48:24;;;;;;;30.77;4.72;;;;;;;10.13;95.88;101464.66;5025947;28;20037;-77
2023/01/05 03:50:51;;;;;;;26.63;4.22;;;;;;;10.16;96.33;101472.16;5012469;28;20112;-77
2023/01/05 03:53:18;;;;;;;35.90;3.95;;;;;;;10.04;97.08;101468.06;5019090;28;20453;-77
2023/01/05 03:55:45;;;;;;;30.63;4.30;;;;;;;10.02;97.53;101463.03;5006094;28;20121;-77
2023/01/05 03:58:11;;;;;;;20.83;4.15;;;;;;;10.03;97.06;101463.84;5000976;28;20037;-76
2023/01/05 04:00:41;;;;;;;29.88;4.85;;;;;;;10.01;96.90;101478.72;5005994;28;20045;-77
2023/01/05 04:03:09;;;;;;;26.67;3.53;;;;;;;10.01;98.33;101476.13;4988508;28;20026;-77
2023/01/05 04:05:35;;;;;;;27.25;3.53;;;;;;;9.97;98.74;101469.56;5002902;28;20057;-78
2023/01/05 04:08:02;;;;;;;28.83;3.20;;;;;;;9.87;99.30;101469.53;5009941;28;21405;-77
2023/01/05 04:10:28;;;;;;;35.00;5.75;;;;;;;9.94;99.22;101483.59;5016865;28;20448;-77
2023/01/05 04:12:55;;;;;;;35.15;3.85;;;;;;;9.89;99.70;101478.84;4990276;28;20037;-75
2023/01/05 04:15:21;;;;;;;31.27;3.80;;;;;;;9.80;100.00;101474.47;4989452;28;20038;-77
2023/01/05 04:17:47;;;;;;;24.20;4.35;;;;;;;9.84;99.91;101478.41;5008835;28;20041;-77
2023/01/05 04:20:12;;;;;;;27.40;4.25;;;;;;;9.79;99.97;101474.59;5003229;28;20030;-78
2023/01/05 04:22:39;;;;;;;29.52;3.40;;;;;;;9.79;100.00;101480.56;5021927;28;20496;-77
2023/01/05 04:25:07;;;;;;;37.70;4.80;;;;;;;9.84;100.00;101468.06;4991449;28;21164;-78
2023/01/05 04:27:33;;;;;;;40.58;4.25;;;;;;;9.75;100.00;101481.81;5007553;28;20042;-78
2023/01/05 04:29:59;;;;;;;38.60;4.05;;;;;;;9.74;100.00;101478.41;5008676;28;20030;-77
2023/01/05 04:32:25;;;;;;;34.60;4.63;;;;;;;9.84;100.00;101485.38;5012159;28;20033;-77
2023/01/05 04:34:51;;;;;;;30.75;5.05;;;;;;;9.82;100.00;101495.88;5023110;28;20042;-77
2023/01/05 04:37:19;;;;;;;30.92;4.68;;;;;;;9.85;99.97;101492.19;5009232;28;20083;-77
2023/01/05 04:39:45;;;;;;;28.38;4.35;;;;;;;9.78;99.81;101489.31;5013725;28;20030;-77
2023/01/05 04:42:11;;;;;;;26.08;5.68;;;;;;;9.77;100.00;101502.41;5019909;28;20234;-77
2023/01/05 04:44:38;;;;;;;29.45;3.58;;;;;;;9.73;100.00;101501.84;4992405;28;20033;-77
2023/01/05 04:47:05;;;;;;;33.55;4.20;;;;;;;9.68;100.00;101494.50;5009164;28;20038;-76
2023/01/05 04:49:32;;;;;;;38.75;4.60;;;;;;;9.76;100.00;101493.81;5005595;28;20036;-77
2023/01/05 04:51:58;;;;;;;31.02;4.63;;;;;;;9.72;100.00;101493.25;4991430;28;20034;-77
2023/01/05 04:54:24;;;;;;;36.80;5.40;;;;;;;9.69;100.00;101495.28;5005789;28;20034;-76
2023/01/05 04:56:50;;;;;;;25.80;3.63;;;;;;;9.71;100.00;101490.78;5007873;28;20443;-77
2023/01/05 04:59:17;;;;;;;23.67;3.50;;;;;;;9.70;100.00;101502.94;5000672;28;20064;-77
2023/01/05 05:01:43;;;;;;;33.72;4.82;;;;;;;9.77;100.00;101507.56;5006956;28;20088;-77
2023/01/05 05:04:11;;;;;;;24.83;3.75;;;;;;;9.66;100.00;101506.75;4987264;28;20041;-78
2023/01/05 05:06:36;;;;;;;36.55;4.72;;;;;;;9.60;100.00;101496.09;5002631;28;20412;-77
2023/01/05 05:09:04;;;;;;;32.38;5.65;;;;;;;9.68;100.00;101496.22;4988558;28;20387;-77
2023/01/05 05:11:30;;;;;;;24.33;3.95;;;;;;;9.72;100.00;101497.63;5007557;28;20231;-77
2023/01/05 05:13:56;;;;;;;30.02;4.53;;;;;;;9.70;100.00;101497.75;5005386;28;20592;-77
2023/01/05 05:16:22;;;;;;;24.33;4.72;;;;;;;9.66;100.00;101500.72;4989014;28;20034;-77
2023/01/05 05:18:49;;;;;;;41.97;5.82;;;;;;;9.67;100.00;101507.56;5022312;28;20062;-77
2023/01/05 05:21:19;;;;;;;40.08;5.38;;;;;;;9.60;100.00;101514.22;5000518;28;20660;-77
2023/01/05 05:23:45;;;;;;;38.10;4.60;;;;;;;9.57;100.00;101514.47;4991265;28;20503;-77
2023/01/05 05:26:11;;;;;;;31.05;5.18;;;;;;;9.62;100.00;101514.91;5011436;28;20073;-78
2023/01/05 05:28:37;;;;;;;42.90;5.93;;;;;;;9.67;100.00;101508.38;5025080;28;20495;-77
2023/01/05 05:31:02;;;;;;;40.05;4.78;;;;;;;9.62;100.00;101510.53;4990773;28;20045;-77
2023/01/05 05:33:28;;;;;;;31.00;5.03;;;;;;;9.54;100.00;101512.97;4996086;28;20025;-77
2023/01/05 05:35:53;;;;;;;32.03;4.78;;;;;;;9.56;100.00;101508.47;5002941;28;20045;-77
2023/01/05 05:38:19;;;;;;;39.97;6.70;;;;;;;9.48;100.00;101513.50;5006415;28;20582;-77
2023/01/05 05:40:47;;;;;;;45.58;5.20;;;;;;;9.43;100.00;101523.44;5005051;28;20045;-77
2023/01/05 05:43:13;;;;;;;33.03;6.13;;;;;;;9.58;100.00;101529.06;5005660;28;20512;-77
2023/01/05 05:45:38;;;;;;;31.83;5.32;;;;;;;9.42;100.00;101522.63;5004913;28;20170;-77
2023/01/05 05:48:05;;;;;;;38.00;6.95;;;;;;;9.50;100.00;101540.06;4989971;28;20026;-77
2023/01/05 05:50:31;;;;;;;32.38;5.15;;;;;;;9.41;100.00;101536.50;4990207;28;20048;-77
2023/01/05 05:53:04;;;;;;;30.88;4.45;;;;;;;9.45;100.00;101547.41;5018297;28;20508;-77
2023/01/05 05:55:29;;;;;;;45.70;5.15;;;;;;;9.36;100.00;101551.59;5004921;28;20034;-77
2023/01/05 05:57:55;;;;;;;33.25;6.35;;;;;;;9.49;100.00;101554.81;4991864;28;20034;-76
2023/01/05 06:00:20;;;;;;;28.33;5.32;;;;;;;9.44;100.00;101569.91;5003820;28;20069;-77
2023/01/05 06:02:46;;;;;;;38.25;5.75;;;;;;;9.50;100.00;101564.19;4983138;28;20030;-77
2023/01/05 06:05:11;;;;;;;41.90;5.53;;;;;;;9.50;100.00;101565.97;5000039;28;20189;-77
2023/01/05 06:07:37;;;;;;;39.28;4.70;;;;;;;9.43;100.00;101572.59;5019538;28;20026;-77
2023/01/05 06:10:03;;;;;;;43.40;5.57;;;;;;;9.39;100.00;101568.66;5004793;28;20038;-77
2023/01/05 06:12:28;;;;;;;34.75;5.45;;;;;;;9.37;100.00;101567.97;5002907;28;20052;-77
2023/01/05 06:14:53;;;;;;;32.40;4.72;;;;;;;9.40;100.00;101575.44;5007801;28;20033;-77
2023/01/05 06:17:19;;;;;;;30.67;5.68;;;;;;;9.29;100.00;101566.81;5005888;28;20045;-77
2023/01/05 06:19:44;;;;;;;32.55;4.43;;;;;;;9.39;100.00;101576.41;4986064;28;20053;-77
2023/01/05 06:22:10;;;;;;;28.77;4.40;;;;;;;9.40;100.00;101583.22;5006069;28;20045;-77
2023/01/05 06:24:36;;;;;;;29.85;4.43;;;;;;;9.41;100.00;101575.31;5002947;28;20053;-77
2023/01/05 06:27:01;;;;;;;36.58;5.78;;;;;;;9.39;100.00;101585.00;4993381;28;20507;-77
2023/01/05 06:29:26;;;;;;;36.67;5.20;;;;;;;9.31;100.00;101579.66;5003182;28;20039;-77
2023/01/05 06:31:52;;;;;;;33.97;4.78;;;;;;;9.40;100.00;101585.81;5009225;28;20038;-76
2023/01/05 06:34:17;;;;;;;35.50;5.97;;;;;;;9.50;100.00;101595.25;5004127;28;20137;-77
2023/01/05 06:36:43;;;;;;;33.90;6.75;;;;;;;9.41;100.00;101587.44;4995927;28;20039;-77
2023/01/05 06:39:08;;;;;;;36.78;5.32;;;;;;;9.45;100.00;101594.00;4990719;28;20032;-77
2023/01/05 06:41:34;;;;;;;48.22;6.43;;;;;;;9.48;100.00;101594.56;4987932;28;20041;-76
2023/01/05 06:44:00;;;;;;;35.75;5.38;;;;;;;9.50;100.00;101595.25;5005181;28;20042;-77
2023/01/05 06:46:26;;;;;;;39.13;7.15;;;;;;;9.40;100.00;101594.41;5003669;28;20038;-77
2023/01/05 06:48:51;;;;;;;30.23;4.72;;;;;;;9.35;100.00;101597.38;5006658;28;20105;-77
2023/01/05 06:51:17;;;;;;;32.55;4.85;;;;;;;9.37;100.00;101597.25;4989667;28;20042;-77
2023/01/05 06:53:42;;;;;;;47.17;5.47;;;;;;;9.47;100.00;101594.69;4994485;28;20022;-77
2023/01/05 06:56:08;;;;;;;34.47;4.75;;;;;;;9.47;100.00;101598.09;5006820;28;20546;-77
2023/01/05 06:58:33;;;;;;;32.88;4.78;;;;;;;9.55;100.00;101605.25;4991309;28;20033;-77
2023/01/05 07:00:59;;;;;;;43.35;5.75;;;;;;;9.42;100.00;101605.44;4992441;28;20036;-77
2023/01/05 07:03:24;;;;;;;25.05;4.72;;;;;;;9.48;100.00;101611.88;5012036;28;20542;-77
2023/01/05 07:05:51;;;;;;;26.35;4.47;;;;;;;9.39;100.00;101608.28;4998671;28;20046;-76
2023/01/05 07:08:16;;;;;;;38.60;6.22;;;;;;;9.35;100.00;101601.72;5008677;28;20044;-77
2023/01/05 07:10:42;;;;;;;29.38;4.45;;;;;;;9.30;100.00;101606.47;5003319;28;20038;-77
2023/01/05 07:13:07;;;;;;;46.80;6.03;;;;;;;9.42;100.00;101608.03;4989154;28;20026;-77
2023/01/05 07:15:33;;;;;;;35.85;5.07;;;;;;;9.41;100.00;101627.09;5007884;28;20037;-77
2023/01/05 07:17:58;;;;;;;49.45;6.85;;;;;;;9.35;100.00;101615.47;4988291;28;20459;-77
2023/01/05 07:20:24;;;;;;;30.70;4.70;;;;;;;9.37;100.00;101624.91;5009243;28;20041;-77
2023/01/05 07:22:49;;;;;;;37.42;4.88;;;;;;;9.39;100.00;101623.81;5007657;28;20508;-77
2023/01/05 07:25:15;;;;;;;42.47;7.10;;;;;;;9.39;100.00;101623.00;5004336;28;20088;-77
2023/01/05 07:27:40;;;;;;;36.50;6.32;;;;;;;9.44;100.00;101616.50;5004108;28;20488;-77
2023/01/05 07:30:06;;;;;;;35.97;5.22;;;;;;;9.52;100.00;101629.59;5012203;28;20513;-77
2023/01/05 07:32:32;;;;;;;42.63;6.30;;;;;;;9.51;100.00;101627.13;5007777;28;20558;-77
2023/01/05 07:34:57;;;;;;;37.05;6.35;;;;;;;9.53;100.00;101635.59;5005058;28;20049;-77
2023/01/05 07:37:26;;;;;;;37.50;6.25;;;;;;;9.43;100.00;101635.56;5006448;28;20033;-77
2023/01/05 07:39:52;;;;;;;37.05;6.30;;;;;;;9.50;100.00;101631.50;5007481;28;20042;-77
2023/01/05 07:42:17;;;;;;;37.13;5.43;;;;;;;9.49;100.00;101629.03;5015067;28;20026;-76
2023/01/05 07:44:44;;;;;;;35.17;5.50;;;;;;;9.50;100.00;101630.69;5012052;28;20045;-77
2023/01/05 07:47:09;;;;;;;37.40;4.88;;;;;;;9.47;100.00;101638.72;5005982;28;20124;-77
2023/01/05 07:49:35;;;;;;;43.53;5.60;;;;;;;9.59;100.00;101642.03;5012011;28;20034;-77
2023/01/05 07:52:00;;;;;;;44.47;5.57;;;;;;;9.51;100.00;101650.44;5007015;28;20038;-77
2023/01/05 07:54:26;;;;;;;32.88;5.50;;;;;;;9.49;100.00;101652.34;5005390;28;20089;-77
2023/01/05 07:56:51;;;;;;;35.03;4.82;;;;;;;9.44;100.00;101654.50;5000314;28;20040;-77
2023/01/05 07:59:17;;;;;;;41.67;6.03;;;;;;;9.42;100.00;101652.03;5006451;28;20037;-77
2023/01/05 08:01:42;;;;;;;41.90;5.05;;;;;;;9.51;100.00;101661.63;5001882;28;20566;-77
2023/01/05 08:04:09;;;;;;;41.85;5.38;;;;;;;9.48;100.00;101671.44;5023085;28;20598;-77
2023/01/05 08:06:35;;;;;;;39.90;5.78;;;;;;;9.41;100.00;101670.28;5005586;28;20135;-77
2023/01/05 08:10:27;;;;;;;41.22;4.93;;;;;;;9.41;100.00;101673.69;5011397;28;20034;-77
2023/01/05 08:11:46;;;;;;;41.55;4.78;;;;;;;9.43;100.00;101681.34;5005087;28;20038;-77
2023/01/05 08:14:11;;;;;;;34.88;4.40;;;;;;;9.38;100.00;101678.28;5010814;28;20025;-77
2023/01/05 08:16:36;;;;;;;31.35;5.40;;;;;;;9.51;100.00;101684.94;5009168;28;20042;-77
2023/01/05 08:19:02;;;;;;;43.03;5.07;;;;;;;9.52;100.00;101690.94;5008791;28;20038;-77
2023/01/05 08:21:28;;;;;;;32.53;5.15;;;;;;;9.49;100.00;101686.00;5008861;28;20045;-77
2023/01/05 08:23:53;;;;;;;32.67;6.07;;;;;;;9.49;100.00;101684.25;5006852;28;20588;-77
2023/01/05 08:26:22;;;;;;;43.80;6.07;;;;;;;9.45;100.00;101685.44;4987718;28;20042;-77
2023/01/05 08:28:48;;;;;;;43.00;8.27;;;;;;;9.49;100.00;101680.81;5010027;28;20069;-77
2023/01/05 08:31:26;;;;;;;30.67;5.10;;;;;;;9.49;100.00;101683.41;5021390;28;20039;-77
2023/01/05 08:33:58;;;;;;;40.40;6.00;;;;;;;9.42;100.00;101680.53;5005399;28;20030;-77
2023/01/05 08:36:24;;;;;;;33.53;5.43;;;;;;;9.34;100.00;101678.56;4987182;28;20084;-77
2023/01/05 08:38:52;;;;;;;35.70;6.07;;;;;;;9.42;100.00;101685.69;5005589;28;20051;-77
2023/01/05 08:41:20;;;;;;;31.30;5.80;;;;;;;9.49;100.00;101688.59;4992568;28;20125;-77
2023/01/05 08:43:51;;;;;;;43.28;6.43;;;;;;;9.46;100.00;101694.84;5008011;28;20084;-77
2023/01/05 08:46:18;;;;;;;40.70;5.03;;;;;;;9.57;100.00;101704.31;5004672;28;20514;-77
2023/01/05 08:48:48;;;;;;;35.65;5.20;;;;;;;9.52;100.00;101709.06;5010272;28;20034;-77
2023/01/05 08:51:13;;;;;;;38.80;7.00;;;;;;;9.55;100.00;101704.44;5005020;28;20038;-77
2023/01/05 08:53:39;;;;;;;44.63;5.85;;;;;;;9.55;100.00;101704.44;5008449;28;20092;-77
2023/01/05 08:56:04;;;;;;;49.05;6.65;;;;;;;9.71;100.00;101708.34;5006015;28;20041;-77
2023/01/05 08:58:30;;;;;;;46.08;6.90;;;;;;;9.76;100.00;101711.38;5006058;28;20026;-75
2023/01/05 09:00:56;;;;;;;36.88;5.78;;;;;;;9.75;100.00;101704.53;4998390;28;20581;-76
2023/01/05 09:03:21;;;;;;;33.40;5.35;;;;;;;9.74;100.00;101715.88;5020107;28;20040;-77
2023/01/05 09:05:47;;;;;;;44.53;6.40;;;;;;;9.87;100.00;101715.63;4989703;28;21009;-77
2023/01/05 09:08:13;;;;;;;38.13;5.95;;;;;;;9.79;100.00;101723.25;5007411;28;20030;-77
2023/01/05 09:10:38;;;;;;;31.10;6.18;;;;;;;9.70;100.00;101738.63;5001066;28;20527;-77
2023/01/05 09:13:04;;;;;;;38.42;5.35;;;;;;;9.74;100.00;101728.81;4999125;28;20428;-77
2023/01/05 09:15:29;;;;;;;41.28;6.40;;;;;;;9.87;100.00;101734.63;5003798;28;20053;-77
2023/01/05 09:17:55;;;;;;;40.88;6.05;;;;;;;9.82;100.00;101735.94;5020029;28;20044;-77
2023/01/05 09:20:20;;;;;;;46.33;7.50;;;;;;;9.90;100.00;101738.72;4982569;28;20049;-77
2023/01/05 09:22:46;;;;;;;45.70;6.65;;;;;;;9.86;100.00;101734.75;4991085;28;20033;-77
2023/01/05 09:25:12;;;;;;;46.10;7.72;;;;;;;9.92;100.00;101742.81;5019098;28;20064;-76
2023/01/05 09:27:37;;;;;;;35.50;5.22;;;;;;;9.88;100.00;101738.03;4987095;28;20038;-78
2023/01/05 09:30:04;;;;;;;49.78;7.20;;;;;;;10.03;100.00;101749.69;4989688;28;20049;-76
2023/01/05 09:32:29;;;;;;;39.42;5.68;;;;;;;10.03;99.90;101743.69;5027411;28;20037;-76
2023/01/05 09:34:55;;;;;;;37.80;5.47;;;;;;;10.04;100.00;101747.91;5011056;28;20045;-77
2023/01/05 09:37:20;;;;;;;46.40;8.07;;;;;;;10.04;99.88;101750.50;5004975;28;20038;-77
2023/01/05 09:39:46;;;;;;;45.22;5.43;;;;;;;10.08;99.20;101754.50;5020754;28;20101;-77
2023/01/05 09:42:16;;;;;;;32.17;5.13;;;;;;;9.97;99.33;101757.16;5025099;28;20036;-77
2023/01/05 09:44:47;;;;;;;55.40;7.53;;;;;;;10.01;99.99;101766.31;5008495;28;20042;-77
2023/01/05 09:47:19;;;;;;;44.92;6.25;;;;;;;10.05;98.96;101768.50;5024012;28;20034;-77
2023/01/05 09:49:48;;;;;;;29.63;5.13;;;;;;;10.01;99.64;101774.91;5045290;23;20068;-79
2023/01/05 09:52:17;;;;;;;37.47;4.85;;;;;;;9.95;99.92;101772.84;5009173;28;20036;-80
2023/01/05 09:54:42;;;;;;;44.40;6.47;;;;;;;10.03;99.60;101780.78;5030269;28;20043;-80
2023/01/05 09:57:18;;;;;;;34.72;5.03;;;;;;;10.06;99.57;101771.94;5030769;28;20033;-78
2023/01/05 09:59:48;;;;;;;46.05;5.68;;;;;;;10.07;99.59;101779.56;5028799;28;20650;-79
2023/01/05 10:02:23;;;;;;;29.42;5.45;;;;;;;10.03;100.00;101788.56;5042994;28;20057;-79
2023/01/05 10:04:50;;;;;;;41.47;6.45;;;;;;;10.05;99.81;101785.84;5026740;28;20380;-79
2023/01/05 10:07:30;;;;;;;45.75;6.68;;;;;;;10.16;98.83;101787.53;5015891;28;20029;-79
2023/01/05 10:10:00;;;;;;;43.42;6.72;;;;;;;10.13;98.72;101789.44;5027629;28;20034;-80
2023/01/05 10:13:02;;;;;;;36.28;5.57;;;;;;;10.17;98.85;101783.97;5029890;28;20025;-79
2023/01/05 10:15:32;;;;;;;47.58;6.50;;;;;;;10.14;98.85;101796.25;5011209;28;20056;-79
2023/01/05 10:18:01;;;;;;;40.45;5.15;;;;;;;10.17;98.60;101799.53;5044307;28;20371;-79
2023/01/05 10:20:48;;;;;;;41.33;5.22;;;;;;;10.15;98.11;101802.25;5038002;28;20056;-81
2023/01/05 10:23:26;;;;;;;38.97;4.95;;;;;;;10.20;98.56;101800.09;5008883;28;20482;-78
2023/01/05 10:26:06;;;;;;;39.03;5.20;;;;;;;10.20;97.88;101802.69;5029219;28;20195;-79
2023/01/05 10:28:43;;;;;;;33.42;5.07;;;;;;;10.04;98.85;101790.22;5045948;28;20112;-77
2023/01/05 10:31:22;;;;;;;37.15;5.65;;;;;;;10.01;99.03;101803.41;5028686;28;20069;-79
2023/01/05 10:34:07;;;;;;;37.75;5.65;;;;;;;10.16;98.27;101805.69;5047385;28;20036;-78
2023/01/05 10:36:32;;;;;;;44.13;9.82;;;;;;;10.04;98.58;101807.50;5039344;28;20046;-80
2023/01/05 10:39:05;;;;;;;35.17;6.25;;;;;;;10.03;99.14;101813.66;5032258;28;20192;-79
2023/01/05 10:42:21;;;;;;;32.10;5.38;;;;;;;10.08;98.62;101812.31;5046189;28;20073;-79
2023/01/05 10:45:09;;;;;;;30.63;5.68;;;;;;;10.08;99.42;101814.09;4971384;28;20050;-79
2023/01/05 10:47:37;;;;;;;37.95;6.15;;;;;;;10.20;98.83;101813.06;5009318;28;20037;-78
2023/01/05 10:50:21;;;;;;;40.30;7.15;;;;;;;10.13;98.71;101810.19;5044786;28;20069;-79
2023/01/05 10:52:46;;;;;;;39.45;5.20;;;;;;;10.16;98.86;101819.44;5039032;28;20032;-79
2023/01/05 10:55:16;;;;;;;35.85;6.10;;;;;;;10.12;99.45;101818.06;5027468;28;20041;-79
2023/01/05 10:57:42;;;;;;;52.75;6.47;;;;;;;10.11;99.01;101822.44;5027194;28;20434;-78
2023/01/05 11:00:09;;;;;;;42.03;5.78;;;;;;;10.06;99.40;101814.22;5012239;28;20091;-79
2023/01/05 11:02:38;;;;;;;37.83;5.80;;;;;;;10.13;99.04;101815.34;5030583;28;20033;-78
2023/01/05 11:05:18;;;;;;;31.38;6.15;;;;;;;10.26;98.02;101820.31;5025998;28;20533;-80
2023/01/05 11:07:48;;;;;;;39.65;5.80;;;;;;;10.28;97.18;101821.03;5029759;28;20061;-79
2023/01/05 11:10:41;;;;;;;40.85;6.65;;;;;;;10.34;96.93;101817.13;5027253;28;20121;-78
2023/01/05 11:13:28;;;;;;;39.95;6.80;;;;;;;10.50;96.38;101829.59;5032112;28;20049;-78
2023/01/05 11:15:58;;;;;;;41.55;6.07;;;;;;;10.47;96.15;101817.72;5004727;28;20052;-79
2023/01/05 11:18:31;;;;;;;36.70;6.47;;;;;;;10.52;96.60;101812.94;5024929;28;20033;-79
2023/01/05 11:21:34;;;;;;;31.00;5.70;;;;;;;10.60;95.25;101814.06;5042076;28;20602;-80
2023/01/05 11:24:00;;;;;;;;;;;;;;;10.59;94.90;101822.81;5019452;28;20056;-76
2023/01/05 11:26:32;;;;;;;37.17;6.53;;;;;;;10.60;94.61;101808.88;5041541;28;20460;-79
2023/01/05 11:28:59;;;;;;;34.20;5.70;;;;;;;10.59;95.18;101813.25;5025574;28;20079;-79
2023/01/05 11:31:34;;;;;;;28.10;5.80;;;;;;;10.54;94.79;101805.03;5003529;28;20050;-78
2023/01/05 11:34:15;;;;;;;37.88;6.50;;;;;;;10.56;94.35;101812.69;5028435;28;20082;-79
2023/01/05 11:36:49;;;;;;;34.83;5.97;;;;;;;10.57;95.51;101828.13;5025111;28;20044;-78
2023/01/05 11:39:48;;;;;;;44.90;7.28;;;;;;;10.57;94.51;101822.94;5009788;28;20085;-76
2023/01/05 11:42:21;;;;;;;30.88;5.88;;;;;;;10.56;94.52;101818.69;5008731;28;20474;-79
2023/01/05 11:44:53;;;;;;;30.58;5.25;;;;;;;10.51;94.23;101823.47;5039824;28;20126;-78
2023/01/05 11:47:43;;;;;;;35.95;5.57;;;;;;;10.56;94.72;101817.88;5028701;28;20047;-80
2023/01/05 11:50:08;;;;;;;41.97;7.05;;;;;;;10.70;93.54;101818.34;5017897;28;20046;-79
2023/01/05 11:52:42;;;;;;;42.63;6.93;;;;;;;10.66;93.56;101814.38;5029426;28;20428;-79
2023/01/05 11:55:23;;;;;;;36.55;6.70;;;;;;;10.74;93.41;101811.13;5010031;28;20045;-81
2023/01/05 11:57:51;;;;;;;36.92;6.32;;;;;;;10.74;93.31;101810.28;5029809;28;20043;-79